createdAt,value
2023-03-11T00:00:41.311Z,1.67
2023-03-11T00:01:41.336Z,1.67
2023-03-11T00:02:41.268Z,1.74
2023-03-11T00:03:41.286Z,1.74
2023-03-11T00:04:41.277Z,1.63
2023-03-11T00:05:41.321Z,1.66
2023-03-11T00:06:41.272Z,1.62
2023-03-11T00:07:41.230Z,1.59
2023-03-11T00:08:41.289Z,1.59
2023-03-11T00:09:41.259Z,1.67
2023-03-11T00:10:41.224Z,1.62
2023-03-11T00:11:41.212Z,1.67
2023-03-11T00:12:41.208Z,1.70
2023-03-11T00:13:41.231Z,1.70
2023-03-11T00:14:41.207Z,1.76
2023-03-11T00:15:41.198Z,1.62
2023-03-11T00:16:41.194Z,1.66
2023-03-11T00:17:41.158Z,1.87
2023-03-11T00:18:41.181Z,1.80
2023-03-11T00:19:41.207Z,1.84
2023-03-11T00:20:41.167Z,1.84
2023-03-11T00:21:41.180Z,1.88
2023-03-11T00:22:41.132Z,1.85
2023-03-11T00:23:41.159Z,1.80
2023-03-11T00:24:41.136Z,1.68
2023-03-11T00:25:41.149Z,1.76
2023-03-11T00:26:41.109Z,1.66
2023-03-11T00:27:41.106Z,1.67
2023-03-11T00:28:41.170Z,1.70
2023-03-11T00:29:41.102Z,1.70
2023-03-11T00:30:41.132Z,1.84
2023-03-11T00:31:41.096Z,1.78
2023-03-11T00:32:41.100Z,1.80
2023-03-11T00:33:41.137Z,1.77
2023-03-11T00:34:41.062Z,1.68
2023-03-11T00:35:41.202Z,1.62
2023-03-11T00:36:41.042Z,1.60
2023-03-11T00:37:41.032Z,1.62
2023-03-11T00:38:41.131Z,1.66
2023-03-11T00:39:41.015Z,1.63
2023-03-11T00:40:41.049Z,1.58
2023-03-11T00:41:41.041Z,1.55
2023-03-11T00:42:41.029Z,1.50
2023-03-11T00:43:41.008Z,1.45
2023-03-11T00:44:40.994Z,1.45
2023-03-11T00:45:40.998Z,1.40
2023-03-11T00:46:40.968Z,1.45
2023-03-11T00:47:40.979Z,1.42
2023-03-11T00:48:40.964Z,1.56
2023-03-11T00:49:40.947Z,1.58
2023-03-11T00:50:40.977Z,1.67
2023-03-11T00:51:40.987Z,1.66
2023-03-11T00:52:40.952Z,1.73
2023-03-11T00:53:40.955Z,1.81
2023-03-11T00:54:40.961Z,1.71
2023-03-11T00:55:40.948Z,1.67
2023-03-11T00:56:40.955Z,1.67
2023-03-11T00:57:40.902Z,1.74
2023-03-11T00:58:40.934Z,1.60
2023-03-11T00:59:40.872Z,1.68
2023-03-11T01:00:40.920Z,1.67
2023-03-11T01:01:40.922Z,1.66
2023-03-11T01:02:40.862Z,1.53
2023-03-11T01:03:40.860Z,1.48
2023-03-11T01:04:40.944Z,1.53
2023-03-11T01:05:40.908Z,1.45
2023-03-11T01:06:45.570Z,1.45
2023-03-11T01:07:42.845Z,1.38
2023-03-11T01:08:40.824Z,1.50
2023-03-11T01:09:40.843Z,1.38
2023-03-11T01:10:40.845Z,1.44
2023-03-11T01:11:40.845Z,1.37
2023-03-11T01:12:40.828Z,1.41
2023-03-11T01:13:40.833Z,1.38
2023-03-11T01:14:40.776Z,1.67
2023-03-11T01:15:40.849Z,1.66
2023-03-11T01:16:40.800Z,1.67
2023-03-11T07:19:14.305Z,1.37
2023-03-11T07:19:47.913Z,1.40
2023-03-11T07:20:47.941Z,1.41
2023-03-11T07:21:47.914Z,1.40
2023-03-11T07:22:47.934Z,1.34
2023-03-11T07:23:47.864Z,1.26
2023-03-11T07:24:47.894Z,1.24
2023-03-11T07:25:47.864Z,1.17
2023-03-11T07:26:47.870Z,1.34
2023-03-11T07:27:47.855Z,1.24
2023-03-11T07:28:47.835Z,1.40
2023-03-11T07:29:47.884Z,1.49
2023-03-11T07:30:47.857Z,1.42
2023-03-11T07:31:47.858Z,1.50
2023-03-11T07:32:47.921Z,1.53
2023-03-11T07:33:47.842Z,1.60
2023-03-11T07:34:47.796Z,1.71
2023-03-11T07:35:47.844Z,1.71
2023-03-11T07:36:47.795Z,1.62
2023-03-11T07:37:47.792Z,1.73
2023-03-11T07:38:47.799Z,1.77
2023-03-11T07:39:47.823Z,1.80
2023-03-11T07:40:47.769Z,1.95
2023-03-11T07:41:47.784Z,1.94
2023-03-11T07:42:47.794Z,1.84
2023-03-11T07:43:47.733Z,1.81
2023-03-11T07:44:47.729Z,1.81
2023-03-11T07:45:47.768Z,1.85
2023-03-11T07:46:47.742Z,1.94
2023-03-11T07:47:47.741Z,1.99
2023-03-11T07:48:47.715Z,1.80
2023-03-11T07:49:47.728Z,1.63
2023-03-11T07:50:47.693Z,1.42
2023-03-11T07:51:47.667Z,1.49
2023-03-11T07:52:47.695Z,1.52
2023-03-11T07:53:47.672Z,1.56
2023-03-11T07:54:47.713Z,1.87
2023-03-11T07:55:47.662Z,1.74
2023-03-11T07:56:47.648Z,1.58
2023-03-11T07:57:47.678Z,1.56
2023-03-11T07:58:48.622Z,1.55
2023-03-11T07:59:47.639Z,1.42
2023-03-11T08:00:47.620Z,1.38
2023-03-11T08:01:47.620Z,1.24
2023-03-11T08:02:47.668Z,1.28
2023-03-11T08:03:47.604Z,1.30
2023-03-11T08:04:47.617Z,1.28
2023-03-11T08:05:47.588Z,1.34
2023-03-11T08:06:47.622Z,1.32
2023-03-11T08:07:47.619Z,1.34
2023-03-11T08:08:47.592Z,1.38
2023-03-11T08:09:47.565Z,1.30
2023-03-11T08:10:47.588Z,1.26
2023-03-11T08:11:49.586Z,1.37
2023-03-11T08:12:47.561Z,1.41
2023-03-11T08:13:47.550Z,1.44
2023-03-11T08:14:47.531Z,1.40
2023-03-11T08:15:47.588Z,1.56
2023-03-11T08:16:47.553Z,1.52
2023-03-11T08:17:47.540Z,1.74
2023-03-11T08:18:47.501Z,1.68
2023-03-11T08:19:47.496Z,1.63
2023-03-11T08:20:47.504Z,1.53
2023-03-11T08:21:47.474Z,1.53
2023-03-11T08:22:57.748Z,1.53
2023-03-11T08:23:49.495Z,1.60
2023-03-11T08:24:47.450Z,1.62
2023-03-11T08:25:47.451Z,1.63
2023-03-11T08:26:47.447Z,1.73
2023-03-11T08:27:47.487Z,1.68
2023-03-11T08:28:47.444Z,1.71
2023-03-11T08:29:47.486Z,1.70
2023-03-11T08:30:47.442Z,1.63
2023-03-11T08:31:47.416Z,1.68
2023-03-11T08:32:47.462Z,1.62
2023-03-11T08:33:47.422Z,1.62
2023-03-11T08:34:47.415Z,1.63
2023-03-11T08:35:47.424Z,1.63
2023-03-11T08:36:47.383Z,1.67
2023-03-11T08:37:47.421Z,1.62
2023-03-11T08:38:47.443Z,1.67
2023-03-11T08:39:47.358Z,1.73
2023-03-11T08:40:47.383Z,1.62
2023-03-11T08:41:47.336Z,1.67
2023-03-11T08:42:47.364Z,1.70
2023-03-11T08:43:47.324Z,1.74
2023-03-11T08:44:47.342Z,1.89
2023-03-11T08:45:47.326Z,1.87
2023-03-11T08:46:47.360Z,1.81
2023-03-11T08:47:47.316Z,1.92
2023-03-11T08:48:47.329Z,1.89
2023-03-11T08:49:47.296Z,1.99
2023-03-11T08:50:54.016Z,2.06
2023-03-11T08:51:49.298Z,2.04
2023-03-11T08:52:47.314Z,1.91
2023-03-11T08:53:47.263Z,2.00
2023-03-11T08:54:47.281Z,1.94
2023-03-11T08:55:47.289Z,1.95
2023-03-11T08:56:47.283Z,1.85
2023-03-11T08:57:47.233Z,2.04
2023-03-11T08:58:47.281Z,2.10
2023-03-11T08:59:47.246Z,2.20
2023-03-11T09:00:47.243Z,2.39
2023-03-11T09:01:47.208Z,2.46
2023-03-11T09:02:47.288Z,2.42
2023-03-11T09:03:47.228Z,2.53
2023-03-11T09:04:47.216Z,2.67
2023-03-11T09:05:47.173Z,2.69
2023-03-11T09:06:48.169Z,2.65
2023-03-11T09:07:47.170Z,2.65
2023-03-11T09:08:47.193Z,2.64
2023-03-11T09:09:47.163Z,2.54
2023-03-11T09:10:47.149Z,2.53
2023-03-11T09:11:47.227Z,2.60
2023-03-11T09:12:47.145Z,2.65
2023-03-11T09:13:47.138Z,2.65
2023-03-11T09:14:47.125Z,2.61
2023-03-11T09:15:47.140Z,2.53
2023-03-11T09:16:47.121Z,2.57
2023-03-11T09:17:47.089Z,2.49
2023-03-11T09:18:47.144Z,2.50
2023-03-11T09:19:47.082Z,2.39
2023-03-11T09:20:47.095Z,2.60
2023-03-11T09:21:47.104Z,2.57
2023-03-11T09:22:47.126Z,2.56
2023-03-11T09:23:47.080Z,2.64
2023-03-11T09:24:47.056Z,2.74
2023-03-11T09:25:47.140Z,2.83
2023-03-11T09:26:47.044Z,2.90
2023-03-11T09:27:47.033Z,3.01
2023-03-11T09:28:47.051Z,2.98
2023-03-11T09:29:47.008Z,2.82
2023-03-11T09:30:47.030Z,2.79
2023-03-11T09:31:47.022Z,2.87
2023-03-11T09:32:47.029Z,2.87
2023-03-11T09:33:46.997Z,2.83
2023-03-11T09:34:46.972Z,2.77
2023-03-11T09:35:47.020Z,2.83
2023-03-11T09:36:46.978Z,2.75
2023-03-11T09:37:46.971Z,2.77
2023-03-11T09:38:46.975Z,2.71
2023-03-11T09:39:46.951Z,2.74
2023-03-11T09:40:47.227Z,2.80
2023-03-11T09:41:57.503Z,3.03
2023-03-11T09:42:48.942Z,3.08
2023-03-11T09:43:46.971Z,3.08
2023-03-11T09:44:46.920Z,2.95
2023-03-11T09:45:46.910Z,3.16
2023-03-11T09:46:46.964Z,3.19
2023-03-11T09:47:46.900Z,3.21
2023-03-11T09:48:46.912Z,3.18
2023-03-11T09:49:46.877Z,3.16
2023-03-11T09:50:46.861Z,3.22
2023-03-11T09:51:46.855Z,3.18
2023-03-11T09:52:46.892Z,3.10
2023-03-11T09:53:46.881Z,3.16
2023-03-11T09:54:46.968Z,3.22
2023-03-11T09:55:46.860Z,3.14
2023-03-11T09:56:46.862Z,3.14
2023-03-11T09:57:46.843Z,3.14
2023-03-11T09:58:46.820Z,3.19
2023-03-11T09:59:46.812Z,3.29
2023-03-11T10:00:46.820Z,3.36
2023-03-11T10:01:46.870Z,3.37
2023-03-11T10:02:46.921Z,3.36
2023-03-11T10:03:46.806Z,3.13
2023-03-11T10:04:46.770Z,3.13
2023-03-11T10:05:46.772Z,3.10
2023-03-11T10:06:46.792Z,3.04
2023-03-11T10:07:46.741Z,3.11
2023-03-11T10:08:46.807Z,3.13
2023-03-11T10:09:46.737Z,3.29
2023-03-11T10:10:46.753Z,3.40
2023-03-11T10:11:46.764Z,3.42
2023-03-11T10:12:46.726Z,3.44
2023-03-11T10:13:46.783Z,3.34
2023-03-11T10:14:46.702Z,3.48
2023-03-11T10:15:46.691Z,3.59
2023-03-11T10:16:46.741Z,3.59
2023-03-11T10:17:46.663Z,3.55
2023-03-11T10:18:46.686Z,3.48
2023-03-11T10:19:46.679Z,3.55
2023-03-11T10:20:46.684Z,3.59
2023-03-11T10:21:46.655Z,3.51
2023-03-11T10:22:46.659Z,3.51
2023-03-11T10:23:46.697Z,3.56
2023-03-11T10:24:46.631Z,3.50
2023-03-11T10:25:46.637Z,3.51
2023-03-11T10:26:46.611Z,3.53
2023-03-11T10:27:46.633Z,3.32
2023-03-11T10:28:46.638Z,3.34
2023-03-11T10:29:46.608Z,3.21
2023-03-11T10:30:46.584Z,3.18
2023-03-11T10:31:46.671Z,3.18
2023-03-11T10:32:46.648Z,3.18
2023-03-11T10:33:47.726Z,3.13
2023-03-11T10:34:47.564Z,3.05
2023-03-11T10:35:46.593Z,2.86
2023-03-11T10:36:46.549Z,3.05
2023-03-11T10:37:49.363Z,3.01
2023-03-11T10:38:47.550Z,3.19
2023-03-11T10:39:46.503Z,3.14
2023-03-11T10:40:46.508Z,3.21
2023-03-11T10:41:46.503Z,3.21
2023-03-11T10:42:46.488Z,3.29
2023-03-11T10:43:46.502Z,3.53
2023-03-11T10:44:46.478Z,3.60
2023-03-11T10:45:46.519Z,3.63
2023-03-11T10:46:46.492Z,3.80
2023-03-11T10:47:46.696Z,3.86
2023-03-11T10:48:46.460Z,3.92
2023-03-11T10:49:46.460Z,3.91
2023-03-11T10:50:46.444Z,3.88
2023-03-11T10:51:46.474Z,3.92
2023-03-11T10:52:46.430Z,3.96
2023-03-11T10:53:46.424Z,4.05
2023-03-11T10:54:46.469Z,4.19
2023-03-11T10:55:46.442Z,4.02
2023-03-11T10:56:46.395Z,3.95
2023-03-11T10:57:46.425Z,4.20
2023-03-11T10:58:46.429Z,4.40
2023-03-11T10:59:46.385Z,4.53
2023-03-11T11:00:46.484Z,4.62
2023-03-11T11:01:46.375Z,4.58
2023-03-11T11:02:46.402Z,4.49
2023-03-11T11:03:46.460Z,4.44
2023-03-11T11:04:46.374Z,4.14
2023-03-11T11:05:46.344Z,4.01
2023-03-11T11:06:46.343Z,3.95
2023-03-11T11:07:46.389Z,3.95
2023-03-11T11:08:46.339Z,3.99
2023-03-11T11:09:46.340Z,3.99
2023-03-11T11:10:46.314Z,4.05
2023-03-11T11:11:46.300Z,4.08
2023-03-11T11:12:46.296Z,4.08
2023-03-11T11:13:46.334Z,3.78
2023-03-11T11:14:46.287Z,3.94
2023-03-11T11:15:46.302Z,3.81
2023-03-11T11:16:46.408Z,3.81
2023-03-11T11:17:46.272Z,3.91
2023-03-11T11:18:48.209Z,3.78
2023-03-11T11:19:46.271Z,3.86
2023-03-11T11:20:46.232Z,3.73
2023-03-11T11:21:46.246Z,3.66
2023-03-11T11:22:46.237Z,3.76
2023-03-11T11:23:46.230Z,3.94
2023-03-11T11:24:46.216Z,4.22
2023-03-11T11:25:46.199Z,4.56
2023-03-11T11:26:46.212Z,4.96
2023-03-11T11:27:46.207Z,5.35
2023-03-11T11:28:46.210Z,5.47
2023-03-11T11:29:46.183Z,5.17
2023-03-11T11:30:46.197Z,5.23
2023-03-11T11:31:46.159Z,5.47
2023-03-11T11:32:47.285Z,5.57
2023-03-11T11:33:46.182Z,5.43
2023-03-11T11:34:46.159Z,5.21
2023-03-11T11:35:46.156Z,5.15
2023-03-11T11:36:46.160Z,5.11
2023-03-11T11:37:46.144Z,5.18
2023-03-11T11:38:46.174Z,5.25
2023-03-11T11:39:46.105Z,5.35
2023-03-11T11:40:46.118Z,5.62
2023-03-11T11:41:46.115Z,5.72
2023-03-11T11:44:38.706Z,5.71
2023-03-11T11:46:32.311Z,5.41
2023-03-11T11:48:25.760Z,5.15
2023-03-11T11:50:19.240Z,4.86
2023-03-11T11:52:12.701Z,4.40
2023-03-11T11:54:06.197Z,4.42
2023-03-11T11:55:59.641Z,4.45
2023-03-11T11:57:53.111Z,4.19
2023-03-11T11:59:46.563Z,4.22
2023-03-11T12:01:40.159Z,4.44
2023-03-11T12:15:54.226Z,4.99
2023-03-11T12:16:28.322Z,4.78
2023-03-11T12:17:28.280Z,4.56
2023-03-11T12:18:28.261Z,4.37
2023-03-11T12:19:28.275Z,4.34
2023-03-11T12:20:28.282Z,4.55
2023-03-11T12:21:28.256Z,4.45
2023-03-11T12:22:28.238Z,4.41
2023-03-11T12:23:28.246Z,4.34
2023-03-11T12:24:28.219Z,4.32
2023-03-11T12:25:28.220Z,4.31
2023-03-11T12:26:28.223Z,4.48
2023-03-11T12:27:28.197Z,4.37
2023-03-11T12:28:28.255Z,4.41
2023-03-11T12:29:28.204Z,4.68
2023-03-11T12:30:28.239Z,5.10
2023-03-11T12:31:28.216Z,5.26
2023-03-11T12:32:28.228Z,5.46
2023-03-11T12:33:28.161Z,5.62
2023-03-11T12:34:28.256Z,5.80
2023-03-11T12:35:28.141Z,5.86
2023-03-11T12:36:29.160Z,6.09
2023-03-11T12:37:28.211Z,6.22
2023-03-11T12:38:28.138Z,6.36
2023-03-11T12:39:28.136Z,6.70
2023-03-11T12:40:28.143Z,6.77
2023-03-11T12:41:28.125Z,6.87
2023-03-11T12:42:28.102Z,6.99
2023-03-11T12:43:28.110Z,6.81
2023-03-11T12:44:28.138Z,6.60
2023-03-11T12:45:28.123Z,6.17
2023-03-11T12:46:28.190Z,5.90
2023-03-11T12:47:28.103Z,5.57
2023-03-11T12:48:28.113Z,5.20
2023-03-11T12:49:28.079Z,5.12
2023-03-11T12:50:28.059Z,4.97
2023-03-11T12:51:28.048Z,4.94
2023-03-11T12:52:28.033Z,4.94
2023-03-11T12:53:28.164Z,4.77
2023-03-11T12:54:28.044Z,4.67
2023-03-11T12:55:28.018Z,4.73
2023-03-11T12:56:28.076Z,4.70
2023-03-11T12:57:27.997Z,4.71
2023-03-11T12:58:28.010Z,4.66
2023-03-11T12:59:28.031Z,4.74
2023-03-11T13:00:28.010Z,4.68
2023-03-11T13:01:27.994Z,4.86
2023-03-11T13:02:28.003Z,5.02
2023-03-11T13:03:27.985Z,5.05
2023-03-11T13:04:27.999Z,5.00
2023-03-11T13:05:27.958Z,4.96
2023-03-11T13:06:27.963Z,4.96
2023-03-11T13:07:27.950Z,4.75
2023-03-11T13:08:27.951Z,4.74
2023-03-11T13:09:29.825Z,4.86
2023-03-11T13:10:27.918Z,4.96
2023-03-11T13:11:27.903Z,5.04
2023-03-11T13:12:27.914Z,5.04
2023-03-11T13:13:27.885Z,4.94
2023-03-11T13:14:27.933Z,4.96
2023-03-11T13:15:27.894Z,5.15
2023-03-11T13:16:27.907Z,5.15
2023-03-11T13:17:28.871Z,5.20
2023-03-11T13:18:27.873Z,5.28
2023-03-11T13:19:27.884Z,5.36
2023-03-11T13:20:27.856Z,5.38
2023-03-11T13:21:27.918Z,5.51
2023-03-11T13:22:27.848Z,5.65
2023-03-11T13:23:27.845Z,5.50
2023-03-11T13:24:27.837Z,5.41
2023-03-11T13:25:27.836Z,5.36
2023-03-11T13:26:27.818Z,5.41
2023-03-11T13:27:27.819Z,5.15
2023-03-11T13:28:27.792Z,5.11
2023-03-11T13:29:27.804Z,5.12
2023-03-11T13:30:27.816Z,5.23
2023-03-11T13:31:27.868Z,5.39
2023-03-11T13:32:27.786Z,5.36
2023-03-11T13:33:27.753Z,5.46
2023-03-11T13:34:27.944Z,5.35
2023-03-11T13:35:27.731Z,5.46
2023-03-11T13:36:27.726Z,5.54
2023-03-11T13:37:27.758Z,5.43
2023-03-11T13:38:27.732Z,5.54
2023-03-11T13:39:27.734Z,5.56
2023-03-11T13:40:27.814Z,5.50
2023-03-11T13:41:28.161Z,5.41
2023-03-11T13:42:27.698Z,5.44
2023-03-11T13:43:27.744Z,5.57
2023-03-11T13:44:27.721Z,5.62
2023-03-11T13:45:27.777Z,5.73
2023-03-11T13:46:27.679Z,5.66
2023-03-11T13:47:27.707Z,5.59
2023-03-11T13:48:27.653Z,5.75
2023-03-11T13:49:27.701Z,5.73
2023-03-11T13:50:27.650Z,5.80
2023-03-11T13:51:27.653Z,5.69
2023-03-11T13:52:27.633Z,5.75
2023-03-11T13:53:27.634Z,5.90
2023-03-11T13:54:27.611Z,5.79
2023-03-11T13:55:27.663Z,5.89
2023-03-11T13:56:27.659Z,5.99
2023-03-11T13:57:27.605Z,6.11
2023-03-11T13:58:27.662Z,6.12
2023-03-11T13:59:27.576Z,6.17
2023-03-11T14:00:27.605Z,6.14
2023-03-11T14:01:27.639Z,6.02
2023-03-11T14:02:27.657Z,5.99
2023-03-11T14:03:27.557Z,5.89
2023-03-11T14:04:27.699Z,5.97
2023-03-11T14:05:27.639Z,5.91
2023-03-11T14:06:27.543Z,5.93
2023-03-11T14:07:27.640Z,6.07
2023-03-11T14:08:27.573Z,6.26
2023-03-11T14:09:27.550Z,6.12
2023-03-11T14:10:27.542Z,6.08
2023-03-11T14:11:27.496Z,5.97
2023-03-11T14:12:27.501Z,6.01
2023-03-11T14:13:27.511Z,5.83
2023-03-11T14:14:27.505Z,5.91
2023-03-11T14:15:27.550Z,5.75
2023-03-11T14:16:27.476Z,5.76
2023-03-11T14:17:27.446Z,5.97
2023-03-11T14:18:27.440Z,5.93
2023-03-11T14:19:27.449Z,5.89
2023-03-11T14:20:27.450Z,6.05
2023-03-11T14:21:27.460Z,6.01
2023-03-11T14:22:27.473Z,5.90
2023-03-11T14:23:28.370Z,5.86
2023-03-11T14:24:27.672Z,6.12
2023-03-11T14:25:27.488Z,6.33
2023-03-11T14:26:27.448Z,6.36
2023-03-11T14:27:27.448Z,6.30
2023-03-11T14:28:27.482Z,6.19
2023-03-11T14:29:27.433Z,6.30
2023-03-11T14:30:28.029Z,6.41
2023-03-11T14:31:27.411Z,6.38
2023-03-11T14:32:27.457Z,6.56
2023-03-11T14:33:27.366Z,6.74
2023-03-11T14:34:27.395Z,7.06
2023-03-11T14:35:28.047Z,7.18
2023-03-11T14:36:27.350Z,7.36
2023-03-11T14:37:27.341Z,7.54
2023-03-11T14:38:27.364Z,7.72
2023-03-11T14:39:27.364Z,7.90
2023-03-11T14:40:27.359Z,7.95
2023-03-11T14:41:27.343Z,8.19
2023-03-11T14:42:27.434Z,8.09
2023-03-11T14:43:27.319Z,8.31
2023-03-11T14:44:27.529Z,8.41
2023-03-11T14:45:27.377Z,8.31
2023-03-11T14:46:27.309Z,8.44
2023-03-11T14:47:27.358Z,8.51
2023-03-11T14:48:27.266Z,8.49
2023-03-11T14:49:27.246Z,8.24
